createdAt,value
2019-02-11T07:15:35.805Z,73.47
2019-02-11T07:18:08.244Z,74.40
2019-02-11T07:20:58.216Z,73.87
2019-02-11T07:23:29.028Z,73.95
2019-02-11T07:26:44.491Z,74.80
2019-02-11T07:32:08.101Z,74.81
2019-02-11T07:34:54.803Z,76.15
2019-02-11T07:37:31.425Z,73.78
2019-02-11T07:40:22.117Z,72.83
2019-02-11T07:43:33.336Z,73.26
2019-02-11T07:49:16.686Z,71.72
2019-02-11T07:51:47.590Z,71.56
2019-02-11T07:54:21.054Z,71.37
2019-02-11T08:05:34.273Z,69.96
2019-02-11T08:08:23.876Z,70.05
2019-02-11T08:11:13.577Z,69.42
2019-02-11T08:14:03.455Z,68.95
2019-02-11T08:16:56.248Z,69.35
2019-02-11T08:19:27.651Z,68.50
2019-02-11T08:22:17.341Z,68.92
2019-02-11T08:25:01.500Z,69.57
2019-02-11T08:27:45.971Z,68.21
2019-02-11T08:30:29.302Z,68.38
2019-02-11T08:33:10.620Z,68.82
2019-02-11T08:35:42.112Z,68.86
2019-02-11T08:41:09.556Z,69.11
2019-02-11T08:43:59.859Z,68.75
2019-02-11T08:50:00.628Z,69.12
2019-02-11T08:52:33.018Z,68.44
2019-02-11T08:55:23.481Z,68.18
2019-02-11T08:58:13.114Z,68.55
2019-02-11T09:00:45.373Z,67.25
2019-02-11T09:03:24.831Z,67.55
2019-02-11T09:05:55.872Z,66.84
2019-02-11T09:08:27.109Z,66.30
2019-02-11T09:11:16.949Z,66.50
2019-02-11T09:13:49.828Z,65.91
2019-02-11T09:16:21.123Z,65.42
2019-02-11T09:18:52.819Z,64.59
2019-02-11T09:21:24.528Z,64.76
2019-02-11T09:23:56.058Z,63.59
2019-02-11T09:26:45.608Z,64.52
2019-02-11T09:29:37.591Z,63.54
2019-02-11T09:32:09.121Z,62.45
2019-02-11T09:34:50.853Z,62.12
2019-02-11T09:37:31.357Z,62.11
2019-02-11T09:40:21.624Z,61.48
2019-02-11T09:43:11.098Z,60.81
2019-02-11T09:46:04.014Z,60.88
2019-02-11T09:48:52.640Z,61.09
2019-02-11T09:51:26.848Z,60.46
2019-02-11T09:56:59.074Z,60.24
2019-02-11T09:59:48.931Z,58.91
2019-02-11T10:02:39.940Z,59.63
2019-02-11T10:05:19.106Z,59.13
2019-02-11T10:08:09.054Z,59.80
2019-02-11T10:10:39.688Z,60.41
2019-02-11T10:13:10.985Z,60.27
2019-02-11T10:16:00.892Z,59.85
2019-02-11T10:18:51.063Z,59.74
2019-02-11T10:21:42.116Z,59.87
2019-02-11T10:24:13.104Z,60.17
2019-02-11T10:26:47.150Z,59.20
2019-02-11T10:29:37.487Z,58.38
2019-02-11T10:32:10.781Z,58.61
2019-02-11T10:34:41.809Z,58.89
2019-02-11T10:37:14.939Z,58.88
2019-02-11T10:40:04.801Z,58.53
2019-02-11T10:42:55.635Z,57.83
2019-02-11T10:48:36.427Z,57.22
2019-02-11T10:51:07.894Z,58.14
2019-02-11T10:53:38.673Z,56.74
2019-02-11T10:56:09.781Z,57.40
2019-02-11T11:01:24.662Z,57.39
2019-02-11T11:04:16.778Z,57.25
2019-02-11T11:07:06.897Z,57.56
2019-02-11T11:09:56.513Z,57.37
2019-02-11T11:12:46.220Z,57.01
2019-02-11T11:15:36.179Z,58.16
2019-02-11T11:18:08.870Z,58.00
2019-02-11T11:20:58.519Z,58.84
2019-02-11T11:23:48.167Z,58.12
2019-02-11T11:26:18.917Z,58.18
2019-02-11T11:29:08.543Z,58.10
2019-02-11T11:31:58.920Z,57.41
2019-02-11T11:34:41.445Z,57.19
2019-02-11T11:37:13.423Z,58.01
2019-02-11T11:40:27.944Z,57.50
2019-02-11T11:43:17.690Z,58.10
2019-02-11T11:45:48.720Z,59.57
2019-02-11T11:48:19.670Z,59.74
2019-02-11T11:50:50.449Z,60.10
2019-02-11T11:53:40.648Z,60.01
2019-02-11T11:56:13.040Z,59.38
2019-02-11T11:58:47.877Z,59.21
2019-02-11T12:01:41.574Z,58.55
2019-02-11T12:04:31.925Z,57.11
2019-02-11T12:07:23.618Z,57.94
2019-02-11T12:09:55.351Z,58.08
2019-02-11T12:12:33.102Z,57.35
2019-02-11T12:15:08.820Z,57.00
2019-02-11T12:18:00.506Z,57.65
2019-02-11T12:23:47.281Z,59.42
2019-02-11T12:26:38.546Z,58.87
2019-02-11T12:29:30.309Z,59.43
2019-02-11T12:32:20.278Z,59.42
2019-02-11T12:34:52.197Z,59.86
2019-02-11T12:37:23.703Z,60.08
2019-02-11T12:42:47.149Z,58.04
2019-02-11T12:51:32.986Z,58.59
2019-02-11T12:57:25.843Z,60.63
2019-02-11T12:59:57.386Z,61.44
2019-02-11T13:05:44.843Z,61.59
2019-02-11T13:08:29.425Z,60.42
2019-02-11T13:11:20.993Z,60.49
2019-02-11T13:13:53.413Z,58.77
2019-02-11T13:16:44.186Z,60.75
2019-02-11T13:19:33.851Z,59.02
2019-02-11T13:22:23.517Z,58.62
2019-02-11T13:25:14.271Z,59.33
2019-02-11T13:28:04.394Z,58.45
2019-02-11T13:30:55.170Z,59.01
2019-02-11T13:33:45.421Z,59.31
2019-02-11T13:36:27.521Z,59.52
2019-02-11T13:38:58.684Z,60.12
2019-02-11T13:44:11.820Z,61.28
2019-02-11T13:50:19.108Z,63.47
2019-02-11T13:53:08.918Z,63.63
2019-02-11T13:56:11.299Z,63.04
2019-02-11T13:59:21.675Z,62.81
2019-02-11T14:05:14.379Z,63.01
2019-02-11T14:08:24.150Z,62.16
2019-02-11T14:11:14.981Z,61.77
2019-02-11T14:14:04.630Z,61.49
2019-02-11T14:16:54.342Z,61.08
2019-02-11T14:19:26.586Z,60.75
2019-02-11T14:21:59.823Z,60.64
2019-02-11T14:24:30.618Z,60.95
2019-02-11T14:27:20.201Z,59.70
2019-02-11T14:30:10.832Z,59.93
2019-02-11T14:33:02.005Z,58.60
2019-02-11T14:35:54.328Z,58.87
2019-02-11T14:38:25.609Z,59.01
2019-02-11T14:41:18.101Z,58.21
2019-02-11T14:44:22.598Z,58.09
2019-02-11T14:47:25.848Z,58.75
2019-02-11T14:50:15.574Z,58.26
2019-02-11T14:52:46.230Z,57.85
2019-02-11T14:55:24.581Z,57.70
2019-02-11T14:58:14.899Z,57.73
2019-02-11T15:01:04.776Z,57.28
2019-02-11T15:06:56.987Z,55.20
2019-02-11T15:09:28.484Z,55.70
2019-02-11T15:12:20.769Z,55.53
2019-02-11T15:15:10.506Z,54.98
2019-02-11T15:17:41.106Z,54.88
2019-02-11T15:20:15.866Z,55.57
2019-02-11T15:23:05.959Z,56.25
2019-02-11T15:25:58.875Z,56.84
2019-02-11T15:28:31.801Z,57.32
2019-02-11T15:31:21.445Z,57.22
2019-02-11T15:34:02.214Z,57.99
2019-02-11T15:36:51.799Z,57.74
2019-02-11T15:39:22.803Z,57.97
2019-02-11T15:42:15.915Z,58.44
2019-02-11T15:44:46.130Z,58.57
2019-02-11T15:47:16.526Z,59.30
2019-02-11T15:49:46.871Z,59.36
2019-02-11T15:52:36.166Z,59.03
2019-02-11T15:55:25.566Z,58.91
2019-02-11T15:57:56.596Z,59.21
2019-02-11T16:00:27.802Z,59.36
2019-02-11T16:06:10.129Z,60.43
2019-02-11T16:08:54.190Z,60.37
2019-02-11T16:11:44.266Z,60.37
2019-02-11T16:14:33.656Z,61.54
2019-02-11T16:17:23.444Z,61.20
2019-02-11T16:20:14.646Z,61.71
2019-02-11T16:23:13.395Z,62.51
2019-02-11T16:26:02.799Z,63.33
2019-02-11T16:28:52.135Z,63.99
2019-02-11T16:31:33.449Z,64.17
2019-02-11T16:34:16.134Z,64.88
2019-02-11T16:36:46.546Z,65.04
2019-02-11T16:40:05.124Z,65.72
2019-02-11T16:42:36.374Z,66.33
2019-02-11T16:45:08.018Z,66.45
2019-02-11T16:47:57.528Z,66.70
2019-02-11T16:50:47.927Z,66.88
2019-02-11T16:53:37.135Z,66.73
2019-02-11T16:56:26.728Z,67.03
2019-02-11T17:02:12.471Z,67.24
2019-02-11T17:04:42.730Z,67.52
2019-02-11T17:07:13.949Z,67.54
2019-02-11T17:10:03.558Z,67.51
2019-02-11T17:12:33.900Z,67.53
2019-02-11T17:15:04.201Z,67.68
2019-02-11T17:17:53.467Z,67.54
2019-02-11T17:20:42.788Z,67.57
2019-02-11T17:23:12.951Z,67.43
2019-02-11T17:26:02.277Z,67.75
2019-02-11T17:31:29.231Z,67.89
2019-02-11T17:34:28.248Z,67.76
2019-02-11T17:37:08.884Z,67.45
2019-02-11T17:39:37.582Z,67.46
2019-02-11T17:42:27.109Z,67.27
2019-02-11T17:45:18.751Z,67.48
2019-02-11T17:48:09.041Z,67.06
2019-02-11T17:50:58.259Z,67.20
2019-02-11T17:53:29.582Z,67.42
2019-02-11T17:56:01.567Z,67.20
2019-02-11T17:58:36.707Z,67.04
2019-02-11T18:01:07.094Z,67.22
2019-02-11T18:03:38.557Z,66.78
2019-02-11T18:06:08.827Z,67.24
2019-02-11T18:08:39.075Z,67.55
2019-02-11T18:11:29.596Z,67.37
2019-02-11T18:13:59.951Z,67.70
2019-02-11T18:16:30.809Z,67.81
2019-02-11T18:19:26.022Z,67.99
2019-02-11T18:21:52.144Z,68.65
2019-02-11T18:24:22.448Z,68.54
2019-02-11T18:26:53.184Z,68.42
2019-02-11T18:29:42.479Z,68.69
2019-02-11T18:32:12.932Z,68.50
2019-02-11T18:34:43.733Z,68.53
2019-02-11T18:37:47.441Z,68.30
2019-02-11T18:40:50.972Z,68.27
2019-02-11T18:43:22.464Z,68.49
2019-02-11T18:45:52.987Z,68.61
2019-02-11T18:48:42.374Z,68.74
2019-02-11T18:51:12.674Z,69.26
2019-02-11T18:54:02.741Z,68.88
2019-02-11T18:56:53.382Z,69.06
2019-02-11T18:59:42.653Z,70.42
2019-02-11T19:02:12.891Z,70.52
2019-02-11T19:04:56.744Z,71.14
2019-02-11T19:07:29.969Z,70.63
2019-02-11T19:10:20.791Z,71.11
2019-02-11T19:13:10.255Z,70.18
2019-02-11T19:15:59.890Z,70.26
2019-02-11T19:18:49.405Z,70.01
2019-02-11T19:21:21.635Z,69.88
2019-02-11T19:23:52.664Z,70.10
2019-02-11T19:29:35.222Z,70.32
2019-02-11T19:32:25.772Z,69.69
2019-02-11T19:35:09.342Z,70.35
2019-02-11T19:37:53.738Z,70.12
2019-02-11T19:40:28.345Z,70.25
2019-02-11T19:42:58.526Z,70.38
2019-02-11T19:45:48.140Z,70.60
2019-02-11T19:48:37.730Z,70.62
2019-02-11T19:51:29.977Z,70.79
2019-02-11T19:54:19.222Z,70.65
2019-02-11T19:57:09.511Z,70.65
2019-02-11T19:59:58.866Z,70.88
2019-02-11T20:05:29.698Z,70.41
2019-02-11T20:08:21.589Z,70.95
2019-02-11T20:11:10.904Z,71.24
2019-02-11T20:13:45.696Z,71.47
2019-02-11T20:17:20.755Z,71.27
2019-02-11T20:27:20.510Z,72.19
2019-02-11T20:29:52.140Z,72.07
2019-02-11T20:46:45.461Z,72.73
2019-02-11T20:49:35.022Z,72.84
2019-02-11T20:56:29.164Z,73.51
2019-02-11T20:59:09.350Z,74.28
2019-02-11T21:02:16.795Z,76.15
2019-02-11T21:08:21.691Z,78.44
2019-02-11T21:24:25.475Z,80.94
2019-02-11T21:27:15.105Z,80.73
2019-02-11T21:29:45.381Z,79.79
2019-02-11T21:32:35.908Z,78.19
2019-02-11T21:35:07.682Z,78.04
2019-02-11T21:37:39.889Z,76.53
2019-02-11T21:40:29.041Z,75.92
2019-02-11T21:43:18.652Z,76.39
2019-02-11T21:46:07.895Z,76.31
2019-02-11T21:48:58.234Z,76.24
2019-02-11T21:51:47.646Z,75.81
2019-02-11T21:57:16.008Z,76.71
2019-02-11T21:59:47.181Z,76.67
2019-02-11T22:02:17.842Z,76.63
2019-02-11T22:05:09.040Z,77.06
2019-02-11T22:07:58.705Z,77.32
2019-02-11T22:10:48.035Z,77.91
2019-02-11T22:13:37.381Z,78.09
2019-02-11T22:16:28.113Z,78.19
2019-02-11T22:19:17.350Z,78.22
2019-02-11T22:21:47.665Z,78.41
2019-02-11T22:24:37.070Z,79.06
2019-02-11T22:27:26.334Z,80.55
2019-02-11T22:30:16.935Z,81.19
2019-02-11T22:32:47.296Z,80.72
2019-02-11T22:35:36.636Z,80.48
2019-02-11T22:38:26.795Z,80.25
2019-02-11T22:41:16.313Z,79.99
2019-02-11T22:44:05.642Z,80.00
2019-02-11T22:46:54.988Z,79.77
2019-02-11T22:49:27.837Z,80.08
2019-02-11T22:52:17.029Z,80.15
2019-02-11T22:55:09.133Z,80.40
2019-02-11T22:57:58.484Z,80.23
2019-02-11T23:01:10.669Z,80.52
2019-02-11T23:04:00.010Z,80.73
2019-02-11T23:06:49.767Z,81.16
2019-02-11T23:09:39.987Z,81.08
2019-02-11T23:12:29.827Z,81.54
2019-02-11T23:15:19.609Z,81.87
2019-02-11T23:18:08.846Z,82.78
2019-02-11T23:20:58.122Z,83.32
2019-02-11T23:23:47.849Z,83.67
2019-02-11T23:26:37.472Z,84.39
2019-02-11T23:29:27.058Z,84.30
2019-02-11T23:32:16.672Z,84.83
2019-02-11T23:34:47.036Z,85.12
2019-02-11T23:37:28.370Z,86.13
2019-02-11T23:42:53.251Z,86.69
2019-02-11T23:45:34.733Z,87.69
2019-02-11T23:48:05.145Z,88.57
2019-02-11T23:51:00.256Z,87.93
2019-02-11T23:53:45.762Z,87.20
2019-02-11T23:56:16.020Z,87.26
2019-02-11T23:59:05.864Z,87.76
